sensor_id;sensor_type;location;lat;lon;timestamp;pressure;altitude;pressure_sealevel;temperature;humidity
48792;BME280;34587;48.816;9.420;2023-07-16T04:47:08;98872.75;;;17.93;100.00
48792;BME280;34587;48.816;9.420;2023-07-16T04:49:34;98880.06;;;18.05;100.00
48792;BME280;34587;48.816;9.420;2023-07-16T04:52:00;98880.56;;;18.13;100.00
48792;BME280;34587;48.816;9.420;2023-07-16T04:54:25;98880.47;;;18.15;100.00
48792;BME280;34587;48.816;9.420;2023-07-16T04:56:50;98884.91;;;18.32;100.00
48792;BME280;34587;48.816;9.420;2023-07-16T04:59:16;98869.16;;;18.32;100.00
48792;BME280;34587;48.816;9.420;2023-07-16T05:01:41;98865.81;;;17.92;100.00
48792;BME280;34587;48.816;9.420;2023-07-16T05:04:06;98883.81;;;17.81;100.00
48792;BME280;34587;48.816;9.420;2023-07-16T05:06:33;98870.06;;;17.76;100.00
48792;BME280;34587;48.816;9.420;2023-07-16T05:08:58;98872.47;;;17.80;100.00
48792;BME280;34587;48.816;9.420;2023-07-16T05:11:23;98879.00;;;17.90;100.00
48792;BME280;34587;48.816;9.420;2023-07-16T05:13:50;98877.56;;;18.02;100.00
48792;BME280;34587;48.816;9.420;2023-07-16T05:16:16;98887.19;;;18.20;100.00
48792;BME280;34587;48.816;9.420;2023-07-16T05:18:41;98882.44;;;18.29;100.00
48792;BME280;34587;48.816;9.420;2023-07-16T05:21:06;98898.66;;;18.37;100.00
48792;BME280;34587;48.816;9.420;2023-07-16T05:23:31;98892.06;;;18.47;100.00
48792;BME280;34587;48.816;9.420;2023-07-16T05:25:57;98895.41;;;18.32;100.00
48792;BME280;34587;48.816;9.420;2023-07-16T05:28:22;98905.53;;;18.39;100.00
48792;BME280;34587;48.816;9.420;2023-07-16T05:30:47;98905.47;;;18.41;100.00
48792;BME280;34587;48.816;9.420;2023-07-16T05:33:13;98900.22;;;18.41;100.00
48792;BME280;34587;48.816;9.420;2023-07-16T05:35:41;98900.78;;;18.47;100.00
48792;BME280;34587;48.816;9.420;2023-07-16T05:38:06;98886.34;;;18.56;100.00
48792;BME280;34587;48.816;9.420;2023-07-16T05:40:32;98888.69;;;18.62;100.00
48792;BME280;34587;48.816;9.420;2023-07-16T05:42:58;98899.19;;;18.62;100.00
48792;BME280;34587;48.816;9.420;2023-07-16T05:45:23;98900.47;;;18.72;100.00
48792;BME280;34587;48.816;9.420;2023-07-16T05:47:48;98914.84;;;18.83;100.00
48792;BME280;34587;48.816;9.420;2023-07-16T05:50:13;98905.41;;;18.79;100.00
48792;BME280;34587;48.816;9.420;2023-07-16T05:52:39;98915.16;;;18.77;100.00
48792;BME280;34587;48.816;9.420;2023-07-16T05:55:04;98915.00;;;18.97;100.00
48792;BME280;34587;48.816;9.420;2023-07-16T05:57:29;98916.53;;;19.36;100.00
48792;BME280;34587;48.816;9.420;2023-07-16T05:59:55;98920.84;;;19.54;100.00
48792;BME280;34587;48.816;9.420;2023-07-16T06:02:20;98907.03;;;19.84;100.00
48792;BME280;34587;48.816;9.420;2023-07-16T06:04:45;98898.16;;;20.34;94.74
48792;BME280;34587;48.816;9.420;2023-07-16T06:07:12;98901.56;;;20.36;91.14
48792;BME280;34587;48.816;9.420;2023-07-16T06:09:37;98898.06;;;20.67;89.13
48792;BME280;34587;48.816;9.420;2023-07-16T06:12:03;98895.41;;;20.35;89.91
48792;BME280;34587;48.816;9.420;2023-07-16T06:14:28;98891.25;;;20.15;91.79
48792;BME280;34587;48.816;9.420;2023-07-16T06:16:53;98904.19;;;20.36;90.03
48792;BME280;34587;48.816;9.420;2023-07-16T06:19:19;98900.09;;;20.14;92.00
48792;BME280;34587;48.816;9.420;2023-07-16T06:21:44;98902.41;;;20.52;89.53
48792;BME280;34587;48.816;9.420;2023-07-16T06:24:09;98913.34;;;20.28;92.87
48792;BME280;34587;48.816;9.420;2023-07-16T06:26:35;98919.63;;;20.42;90.06
48792;BME280;34587;48.816;9.420;2023-07-16T06:29:00;98925.38;;;20.01;90.42
48792;BME280;34587;48.816;9.420;2023-07-16T06:31:25;98931.31;;;19.89;94.67
48792;BME280;34587;48.816;9.420;2023-07-16T06:33:51;98933.13;;;19.71;94.57
48792;BME280;34587;48.816;9.420;2023-07-16T06:36:17;98918.75;;;19.78;94.99
48792;BME280;34587;48.816;9.420;2023-07-16T06:38:44;98903.19;;;19.73;92.56
48792;BME280;34587;48.816;9.420;2023-07-16T06:41:10;98896.66;;;19.81;88.04
48792;BME280;34587;48.816;9.420;2023-07-16T06:43:35;98908.84;;;19.99;89.22
48792;BME280;34587;48.816;9.420;2023-07-16T06:46:00;98897.97;;;20.05;89.50
48792;BME280;34587;48.816;9.420;2023-07-16T06:48:26;98912.69;;;19.76;92.76
48792;BME280;34587;48.816;9.420;2023-07-16T06:50:51;98906.41;;;20.12;92.74
48792;BME280;34587;48.816;9.420;2023-07-16T06:53:16;98897.03;;;20.38;87.00
48792;BME280;34587;48.816;9.420;2023-07-16T06:55:42;98882.25;;;20.35;87.54
48792;BME280;34587;48.816;9.420;2023-07-16T06:58:10;98890.06;;;20.68;85.44
48792;BME280;34587;48.816;9.420;2023-07-16T07:00:35;98888.19;;;20.70;83.35
48792;BME280;34587;48.816;9.420;2023-07-16T07:03:01;98889.06;;;21.15;79.66
48792;BME280;34587;48.816;9.420;2023-07-16T07:05:26;98887.25;;;21.46;78.97
48792;BME280;34587;48.816;9.420;2023-07-16T07:07:51;98900.25;;;21.92;75.94
48792;BME280;34587;48.816;9.420;2023-07-16T07:10:17;98903.09;;;21.60;75.70
48792;BME280;34587;48.816;9.420;2023-07-16T07:12:42;98905.72;;;21.60;75.47
48792;BME280;34587;48.816;9.420;2023-07-16T07:15:08;98911.56;;;21.51;73.43
48792;BME280;34587;48.816;9.420;2023-07-16T07:17:34;98913.19;;;21.68;73.57
48792;BME280;34587;48.816;9.420;2023-07-16T07:20:00;98910.41;;;22.26;71.81
48792;BME280;34587;48.816;9.420;2023-07-16T07:22:25;98899.19;;;24.55;62.68
48792;BME280;34587;48.816;9.420;2023-07-16T07:24:50;98893.78;;;24.57;60.12
48792;BME280;34587;48.816;9.420;2023-07-16T07:27:16;98889.34;;;26.83;51.40
48792;BME280;34587;48.816;9.420;2023-07-16T07:29:41;98883.09;;;28.18;48.57
48792;BME280;34587;48.816;9.420;2023-07-16T07:32:07;98882.03;;;30.21;43.88
48792;BME280;34587;48.816;9.420;2023-07-16T07:34:32;98877.22;;;29.69;42.16
48792;BME280;34587;48.816;9.420;2023-07-16T07:36:57;98884.19;;;29.80;43.12
48792;BME280;34587;48.816;9.420;2023-07-16T07:39:23;98886.06;;;29.70;43.08
48792;BME280;34587;48.816;9.420;2023-07-16T07:41:48;98891.16;;;27.87;44.83
48792;BME280;34587;48.816;9.420;2023-07-16T07:44:13;98905.47;;;25.94;48.07
48792;BME280;34587;48.816;9.420;2023-07-16T07:46:38;98907.94;;;27.57;46.23
48792;BME280;34587;48.816;9.420;2023-07-16T07:49:04;98912.28;;;28.60;43.84
48792;BME280;34587;48.816;9.420;2023-07-16T07:51:29;98917.53;;;27.90;44.78
48792;BME280;34587;48.816;9.420;2023-07-16T07:53:54;98908.50;;;28.72;42.66
48792;BME280;34587;48.816;9.420;2023-07-16T07:56:20;98904.28;;;31.03;38.85
48792;BME280;34587;48.816;9.420;2023-07-16T07:58:45;98911.56;;;29.55;39.58
48792;BME280;34587;48.816;9.420;2023-07-16T08:01:10;98917.38;;;27.40;42.32
48792;BME280;34587;48.816;9.420;2023-07-16T08:03:36;98923.72;;;26.75;44.90
48792;BME280;34587;48.816;9.420;2023-07-16T08:06:01;98926.59;;;25.26;49.13
48792;BME280;34587;48.816;9.420;2023-07-16T08:08:27;98916.19;;;24.40;49.96
48792;BME280;34587;48.816;9.420;2023-07-16T08:10:53;98915.63;;;27.09;46.47
48792;BME280;34587;48.816;9.420;2023-07-16T08:13:18;98911.69;;;26.49;47.78
48792;BME280;34587;48.816;9.420;2023-07-16T08:15:44;98921.34;;;26.61;47.68
48792;BME280;34587;48.816;9.420;2023-07-16T08:18:09;98931.50;;;24.11;52.57
48792;BME280;34587;48.816;9.420;2023-07-16T08:20:38;98939.50;;;24.22;51.98
48792;BME280;34587;48.816;9.420;2023-07-16T08:23:03;98934.06;;;23.87;52.65
48792;BME280;34587;48.816;9.420;2023-07-16T08:25:28;98930.25;;;23.78;53.87
48792;BME280;34587;48.816;9.420;2023-07-16T08:27:54;98931.25;;;23.12;55.32
48792;BME280;34587;48.816;9.420;2023-07-16T08:30:19;98933.22;;;23.36;57.02
48792;BME280;34587;48.816;9.420;2023-07-16T08:32:44;98922.53;;;23.37;56.69
48792;BME280;34587;48.816;9.420;2023-07-16T08:35:09;98915.00;;;26.73;47.33
48792;BME280;34587;48.816;9.420;2023-07-16T08:37:41;98903.66;;;31.09;39.38
48792;BME280;34587;48.816;9.420;2023-07-16T08:40:07;98906.38;;;31.53;35.82
48792;BME280;34587;48.816;9.420;2023-07-16T08:42:39;98905.03;;;31.57;37.08
48792;BME280;34587;48.816;9.420;2023-07-16T08:45:10;98892.22;;;29.14;40.96
48792;BME280;34587;48.816;9.420;2023-07-16T08:47:35;98906.88;;;26.20;45.51
48792;BME280;34587;48.816;9.420;2023-07-16T08:50:01;98908.84;;;26.18;46.32
48792;BME280;34587;48.816;9.420;2023-07-16T08:52:27;98898.41;;;27.76;43.84
48792;BME280;34587;48.816;9.420;2023-07-16T08:54:53;98914.28;;;28.97;40.56
48792;BME280;34587;48.816;9.420;2023-07-16T08:57:19;98918.91;;;28.94;41.02
48792;BME280;34587;48.816;9.420;2023-07-16T08:59:48;98924.09;;;28.27;42.08
48792;BME280;34587;48.816;9.420;2023-07-16T09:02:15;98932.63;;;26.20;44.21
48792;BME280;34587;48.816;9.420;2023-07-16T09:04:40;98927.38;;;24.07;50.63
48792;BME280;34587;48.816;9.420;2023-07-16T09:07:05;98923.81;;;24.45;51.44
48792;BME280;34587;48.816;9.420;2023-07-16T09:09:31;98937.69;;;23.99;51.00
48792;BME280;34587;48.816;9.420;2023-07-16T09:11:56;98932.97;;;26.15;47.14
48792;BME280;34587;48.816;9.420;2023-07-16T09:14:22;98918.03;;;28.65;40.36
48792;BME280;34587;48.816;9.420;2023-07-16T09:16:48;98922.44;;;27.44;42.48
48792;BME280;34587;48.816;9.420;2023-07-16T09:19:14;98933.31;;;26.87;45.12
48792;BME280;34587;48.816;9.420;2023-07-16T09:21:42;98935.16;;;26.21;45.68
48792;BME280;34587;48.816;9.420;2023-07-16T09:24:08;98924.44;;;24.96;49.16
48792;BME280;34587;48.816;9.420;2023-07-16T09:26:37;98926.50;;;25.04;48.76
48792;BME280;34587;48.816;9.420;2023-07-16T09:29:05;98916.78;;;29.37;41.20
48792;BME280;34587;48.816;9.420;2023-07-16T09:31:30;98913.91;;;32.68;34.32
48792;BME280;34587;48.816;9.420;2023-07-16T09:33:57;98916.50;;;34.77;31.32
48792;BME280;34587;48.816;9.420;2023-07-16T09:36:24;98919.97;;;34.63;30.82
48792;BME280;34587;48.816;9.420;2023-07-16T09:38:52;98909.88;;;35.48;28.64
48792;BME280;34587;48.816;9.420;2023-07-16T09:41:19;98913.06;;;35.29;28.93
48792;BME280;34587;48.816;9.420;2023-07-16T09:43:45;98916.38;;;37.22;27.37
48792;BME280;34587;48.816;9.420;2023-07-16T09:46:11;98912.31;;;36.32;28.74
48792;BME280;34587;48.816;9.420;2023-07-16T09:48:36;98916.47;;;33.02;30.92
48792;BME280;34587;48.816;9.420;2023-07-16T09:51:01;98922.00;;;29.00;38.10
48792;BME280;34587;48.816;9.420;2023-07-16T09:53:30;98924.25;;;27.43;41.80
48792;BME280;34587;48.816;9.420;2023-07-16T09:55:58;98911.88;;;28.74;38.39
48792;BME280;34587;48.816;9.420;2023-07-16T09:58:25;98912.63;;;33.37;31.56
48792;BME280;34587;48.816;9.420;2023-07-16T10:00:51;98913.22;;;32.58;31.02
48792;BME280;34587;48.816;9.420;2023-07-16T10:03:17;98912.09;;;30.51;34.43
48792;BME280;34587;48.816;9.420;2023-07-16T10:05:43;98910.63;;;31.19;33.00
48792;BME280;34587;48.816;9.420;2023-07-16T10:08:16;98899.97;;;30.38;35.02
48792;BME280;34587;48.816;9.420;2023-07-16T10:10:53;98903.75;;;30.36;34.46
48792;BME280;34587;48.816;9.420;2023-07-16T10:13:22;98906.25;;;30.65;33.71
48792;BME280;34587;48.816;9.420;2023-07-16T10:15:55;98904.56;;;33.21;29.71
48792;BME280;34587;48.816;9.420;2023-07-16T10:18:31;98904.50;;;32.72;32.44
48792;BME280;34587;48.816;9.420;2023-07-16T10:21:07;98903.63;;;31.44;32.37
48792;BME280;34587;48.816;9.420;2023-07-16T10:23:41;98908.28;;;29.70;36.04
48792;BME280;34587;48.816;9.420;2023-07-16T10:26:08;98899.13;;;30.56;33.43
48792;BME280;34587;48.816;9.420;2023-07-16T10:28:35;98886.06;;;30.53;34.65
48792;BME280;34587;48.816;9.420;2023-07-16T10:31:01;98897.44;;;30.55;34.77
48792;BME280;34587;48.816;9.420;2023-07-16T10:33:26;98888.91;;;32.59;32.33
48792;BME280;34587;48.816;9.420;2023-07-16T10:35:52;98887.63;;;31.61;32.12
48792;BME280;34587;48.816;9.420;2023-07-16T10:38:17;98895.69;;;31.17;33.44
48792;BME280;34587;48.816;9.420;2023-07-16T10:40:44;98895.34;;;31.38;33.07
48792;BME280;34587;48.816;9.420;2023-07-16T10:43:10;98895.19;;;27.51;36.79
48792;BME280;34587;48.816;9.420;2023-07-16T10:45:36;98887.28;;;27.71;38.86
48792;BME280;34587;48.816;9.420;2023-07-16T10:48:01;98888.13;;;26.87;40.18
48792;BME280;34587;48.816;9.420;2023-07-16T10:50:27;98878.16;;;28.54;36.57
48792;BME280;34587;48.816;9.420;2023-07-16T10:52:53;98874.38;;;27.66;37.84
48792;BME280;34587;48.816;9.420;2023-07-16T10:55:18;98882.81;;;28.11;37.36
48792;BME280;34587;48.816;9.420;2023-07-16T10:57:48;98869.66;;;28.20;37.36
48792;BME280;34587;48.816;9.420;2023-07-16T11:00:17;98879.53;;;27.16;39.82
48792;BME280;34587;48.816;9.420;2023-07-16T11:02:43;98874.03;;;27.59;38.94
48792;BME280;34587;48.816;9.420;2023-07-16T11:05:10;98870.00;;;29.23;35.83
48792;BME280;34587;48.816;9.420;2023-07-16T11:07:36;98873.56;;;32.27;32.35
48792;BME280;34587;48.816;9.420;2023-07-16T11:10:02;98866.06;;;34.71;29.28
48792;BME280;34587;48.816;9.420;2023-07-16T11:12:28;98877.00;;;36.48;26.21
48792;BME280;34587;48.816;9.420;2023-07-16T11:14:55;98870.25;;;37.51;25.29
48792;BME280;34587;48.816;9.420;2023-07-16T11:17:21;98870.53;;;33.85;29.28
48792;BME280;34587;48.816;9.420;2023-07-16T11:19:51;98861.56;;;31.71;32.04
48792;BME280;34587;48.816;9.420;2023-07-16T11:22:17;98870.63;;;31.70;33.30
48792;BME280;34587;48.816;9.420;2023-07-16T11:24:45;98873.94;;;30.13;34.49
48792;BME280;34587;48.816;9.420;2023-07-16T11:27:15;98882.19;;;29.45;35.40
48792;BME280;34587;48.816;9.420;2023-07-16T11:29:52;98864.59;;;30.98;32.74
48792;BME280;34587;48.816;9.420;2023-07-16T11:32:43;98870.31;;;34.34;28.58
48792;BME280;34587;48.816;9.420;2023-07-16T11:35:15;98866.72;;;34.19;28.08
48792;BME280;34587;48.816;9.420;2023-07-16T11:37:41;98866.41;;;33.66;29.10
48792;BME280;34587;48.816;9.420;2023-07-16T11:40:08;98867.56;;;29.86;34.49
48792;BME280;34587;48.816;9.420;2023-07-16T11:42:35;98862.69;;;29.25;37.04
48792;BME280;34587;48.816;9.420;2023-07-16T11:45:01;98861.59;;;31.19;33.93
48792;BME280;34587;48.816;9.420;2023-07-16T11:47:27;98858.22;;;32.86;30.57
48792;BME280;34587;48.816;9.420;2023-07-16T11:49:53;98850.88;;;34.78;27.94
48792;BME280;34587;48.816;9.420;2023-07-16T11:52:29;98858.97;;;31.27;31.51
48792;BME280;34587;48.816;9.420;2023-07-16T11:54:57;98855.72;;;29.99;33.54
48792;BME280;34587;48.816;9.420;2023-07-16T11:57:24;98855.84;;;29.69;34.96
48792;BME280;34587;48.816;9.420;2023-07-16T11:59:50;98838.63;;;30.73;35.19
48792;BME280;34587;48.816;9.420;2023-07-16T12:02:15;98843.28;;;32.01;32.32
48792;BME280;34587;48.816;9.420;2023-07-16T12:04:41;98845.66;;;32.04;31.58
48792;BME280;34587;48.816;9.420;2023-07-16T12:07:07;98835.22;;;29.89;33.74
48792;BME280;34587;48.816;9.420;2023-07-16T12:09:32;98830.88;;;28.56;37.12
48792;BME280;34587;48.816;9.420;2023-07-16T12:12:00;98838.03;;;29.51;36.04
48792;BME280;34587;48.816;9.420;2023-07-16T12:14:25;98841.63;;;29.22;36.70
48792;BME280;34587;48.816;9.420;2023-07-16T12:16:51;98828.53;;;29.29;35.12
48792;BME280;34587;48.816;9.420;2023-07-16T12:19:16;98821.38;;;29.29;35.81
48792;BME280;34587;48.816;9.420;2023-07-16T12:21:41;98825.69;;;28.64;36.49
48792;BME280;34587;48.816;9.420;2023-07-16T12:24:07;98826.78;;;28.71;36.05
48792;BME280;34587;48.816;9.420;2023-07-16T12:26:32;98811.91;;;29.07;36.82
48792;BME280;34587;48.816;9.420;2023-07-16T12:28:57;98814.41;;;29.83;35.66
48792;BME280;34587;48.816;9.420;2023-07-16T12:31:23;98809.94;;;28.61;36.80
48792;BME280;34587;48.816;9.420;2023-07-16T12:33:48;98799.84;;;28.55;37.64
48792;BME280;34587;48.816;9.420;2023-07-16T12:36:14;98799.22;;;28.03;37.62
48792;BME280;34587;48.816;9.420;2023-07-16T12:38:41;98805.78;;;27.18;40.54
48792;BME280;34587;48.816;9.420;2023-07-16T12:41:06;98800.44;;;27.18;39.19
48792;BME280;34587;48.816;9.420;2023-07-16T12:43:32;98808.59;;;27.57;38.56
48792;BME280;34587;48.816;9.420;2023-07-16T12:46:03;98801.72;;;27.95;39.50
48792;BME280;34587;48.816;9.420;2023-07-16T12:48:32;98803.13;;;27.89;38.48
48792;BME280;34587;48.816;9.420;2023-07-16T12:50:57;98794.06;;;28.21;36.95
48792;BME280;34587;48.816;9.420;2023-07-16T12:53:24;98786.84;;;27.82;38.48
48792;BME280;34587;48.816;9.420;2023-07-16T12:55:49;98799.53;;;28.19;38.75
48792;BME280;34587;48.816;9.420;2023-07-16T12:58:14;98801.72;;;27.95;38.27
48792;BME280;34587;48.816;9.420;2023-07-16T13:00:40;98801.69;;;27.85;38.08
48792;BME280;34587;48.816;9.420;2023-07-16T13:03:05;98807.00;;;27.75;38.08
48792;BME280;34587;48.816;9.420;2023-07-16T13:05:33;98805.72;;;28.29;37.88
48792;BME280;34587;48.816;9.420;2023-07-16T13:07:58;98791.56;;;28.97;35.45
48792;BME280;34587;48.816;9.420;2023-07-16T13:10:23;98785.28;;;30.17;34.34
48792;BME280;34587;48.816;9.420;2023-07-16T13:12:49;98800.19;;;29.65;35.48
48792;BME280;34587;48.816;9.420;2023-07-16T13:15:14;98788.09;;;30.16;34.78
48792;BME280;34587;48.816;9.420;2023-07-16T13:17:39;98792.06;;;28.13;36.97
48792;BME280;34587;48.816;9.420;2023-07-16T13:20:05;98783.84;;;28.74;38.03
48792;BME280;34587;48.816;9.420;2023-07-16T13:22:32;98782.09;;;29.12;37.53
48792;BME280;34587;48.816;9.420;2023-07-16T13:24:57;98788.00;;;27.99;37.69
48792;BME280;34587;48.816;9.420;2023-07-16T13:27:23;98779.59;;;28.13;36.99
48792;BME280;34587;48.816;9.420;2023-07-16T13:29:48;98768.38;;;28.87;36.86
48792;BME280;34587;48.816;9.420;2023-07-16T13:32:14;98764.25;;;30.05;34.63
48792;BME280;34587;48.816;9.420;2023-07-16T13:34:39;98778.56;;;29.49;35.48
48792;BME280;34587;48.816;9.420;2023-07-16T13:37:04;98766.72;;;28.67;37.12
48792;BME280;34587;48.816;9.420;2023-07-16T13:39:30;98763.56;;;27.75;37.69
48792;BME280;34587;48.816;9.420;2023-07-16T13:41:55;98767.28;;;28.22;38.02
48792;BME280;34587;48.816;9.420;2023-07-16T13:44:21;98764.19;;;28.65;37.29
48792;BME280;34587;48.816;9.420;2023-07-16T13:46:46;98765.34;;;28.63;37.56
48792;BME280;34587;48.816;9.420;2023-07-16T13:49:12;98763.56;;;28.91;36.75
48792;BME280;34587;48.816;9.420;2023-07-16T13:51:37;98751.88;;;28.35;37.11
48792;BME280;34587;48.816;9.420;2023-07-16T13:54:03;98757.72;;;28.87;36.54
48792;BME280;34587;48.816;9.420;2023-07-16T13:56:28;98758.13;;;29.67;37.18
48792;BME280;34587;48.816;9.420;2023-07-16T13:58:53;98764.34;;;29.30;36.49
48792;BME280;34587;48.816;9.420;2023-07-16T14:01:19;98767.06;;;29.48;36.03
48792;BME280;34587;48.816;9.420;2023-07-16T14:03:44;98760.09;;;29.92;34.65
48792;BME280;34587;48.816;9.420;2023-07-16T14:06:10;98757.13;;;28.93;36.22
48792;BME280;34587;48.816;9.420;2023-07-16T14:08:35;98761.16;;;29.44;36.44
48792;BME280;34587;48.816;9.420;2023-07-16T14:11:01;98752.47;;;29.42;36.27
48792;BME280;34587;48.816;9.420;2023-07-16T14:13:26;98759.41;;;29.35;36.71
48792;BME280;34587;48.816;9.420;2023-07-16T14:15:51;98763.69;;;29.56;36.46
48792;BME280;34587;48.816;9.420;2023-07-16T14:18:17;98763.03;;;29.07;36.47
48792;BME280;34587;48.816;9.420;2023-07-16T14:20:42;98757.59;;;28.60;37.67
48792;BME280;34587;48.816;9.420;2023-07-16T14:23:07;98762.44;;;29.13;38.01
48792;BME280;34587;48.816;9.420;2023-07-16T14:25:33;98754.09;;;28.59;36.57
48792;BME280;34587;48.816;9.420;2023-07-16T14:27:58;98755.28;;;28.94;37.01
48792;BME280;34587;48.816;9.420;2023-07-16T14:30:23;98763.16;;;29.05;36.92
48792;BME280;34587;48.816;9.420;2023-07-16T14:32:49;98757.13;;;28.93;36.85
48792;BME280;34587;48.816;9.420;2023-07-16T14:35:14;98758.47;;;28.51;38.27
48792;BME280;34587;48.816;9.420;2023-07-16T14:37:39;98759.69;;;28.17;39.11
48792;BME280;34587;48.816;9.420;2023-07-16T14:40:05;98765.19;;;27.66;39.18
48792;BME280;34587;48.816;9.420;2023-07-16T14:42:33;98759.69;;;27.98;39.27
48792;BME280;34587;48.816;9.420;2023-07-16T14:45:02;98759.66;;;27.88;38.92
48792;BME280;34587;48.816;9.420;2023-07-16T14:47:29;98756.84;;;27.80;38.75
48792;BME280;34587;48.816;9.420;2023-07-16T14:49:55;98763.19;;;27.49;39.48
48792;BME280;34587;48.816;9.420;2023-07-16T14:52:20;98762.03;;;27.41;39.10
48792;BME280;34587;48.816;9.420;2023-07-16T14:54:45;98761.41;;;27.28;39.53
48792;BME280;34587;48.816;9.420;2023-07-16T14:57:11;98757.16;;;27.16;39.77
48792;BME280;34587;48.816;9.420;2023-07-16T14:59:39;98757.50;;;26.81;39.91
48792;BME280;34587;48.816;9.420;2023-07-16T15:02:05;98755.28;;;26.86;40.56
48792;BME280;34587;48.816;9.420;2023-07-16T15:04:30;98760.03;;;26.82;40.99
48792;BME280;34587;48.816;9.420;2023-07-16T15:06:56;98763.78;;;27.01;40.69
48792;BME280;34587;48.816;9.420;2023-07-16T15:09:24;98757.16;;;27.16;40.35
48792;BME280;34587;48.816;9.420;2023-07-16T15:11:49;98753.72;;;27.35;40.22
48792;BME280;34587;48.816;9.420;2023-07-16T15:14:14;98752.16;;;27.23;39.94
48792;BME280;34587;48.816;9.420;2023-07-16T15:16:43;98747.53;;;28.54;38.45
48792;BME280;34587;48.816;9.420;2023-07-16T15:19:08;98745.06;;;28.99;37.40
48792;BME280;34587;48.816;9.420;2023-07-16T15:21:34;98750.41;;;28.99;36.83
48792;BME280;34587;48.816;9.420;2023-07-16T15:24:02;98745.63;;;29.03;37.50
48792;BME280;34587;48.816;9.420;2023-07-16T15:26:28;98743.13;;;28.33;38.02
48792;BME280;34587;48.816;9.420;2023-07-16T15:28:53;98737.78;;;27.95;38.75
48792;BME280;34587;48.816;9.420;2023-07-16T15:31:19;98736.28;;;27.52;39.15
48792;BME280;34587;48.816;9.420;2023-07-16T15:33:52;98739.25;;;27.18;40.11
48792;BME280;34587;48.816;9.420;2023-07-16T15:36:17;98728.50;;;26.99;40.56
48792;BME280;34587;48.816;9.420;2023-07-16T15:38:42;98720.63;;;26.67;41.27
48792;BME280;34587;48.816;9.420;2023-07-16T15:41:07;98731.25;;;26.46;42.14
48792;BME280;34587;48.816;9.420;2023-07-16T15:43:33;98730.47;;;26.23;42.52
48792;BME280;34587;48.816;9.420;2023-07-16T15:45:58;98736.38;;;26.26;43.73
48792;BME280;34587;48.816;9.420;2023-07-16T15:48:24;98730.69;;;26.31;43.89
48792;BME280;34587;48.816;9.420;2023-07-16T15:50:52;98723.81;;;26.28;43.53
48792;BME280;34587;48.816;9.420;2023-07-16T15:53:22;98725.22;;;26.44;42.60
48792;BME280;34587;48.816;9.420;2023-07-16T15:55:47;98733.97;;;26.76;42.97
48792;BME280;34587;48.816;9.420;2023-07-16T15:58:13;98729.66;;;27.46;42.38
48792;BME280;34587;48.816;9.420;2023-07-16T16:00:38;98724.06;;;28.28;39.86
48792;BME280;34587;48.816;9.420;2023-07-16T16:03:04;98719.03;;;28.25;39.23
48792;BME280;34587;48.816;9.420;2023-07-16T16:05:31;98721.81;;;28.33;39.35
48792;BME280;34587;48.816;9.420;2023-07-16T16:08:17;98716.44;;;28.91;38.99
48792;BME280;34587;48.816;9.420;2023-07-16T16:10:44;98717.06;;;28.47;39.70
48792;BME280;34587;48.816;9.420;2023-07-16T16:13:13;98716.47;;;27.75;39.92
48792;BME280;34587;48.816;9.420;2023-07-16T16:15:38;98718.44;;;27.73;40.60
48792;BME280;34587;48.816;9.420;2023-07-16T16:18:03;98718.91;;;27.48;41.72
48792;BME280;34587;48.816;9.420;2023-07-16T16:20:29;98717.66;;;26.60;41.29
48792;BME280;34587;48.816;9.420;2023-07-16T16:22:54;98719.69;;;26.77;42.49
48792;BME280;34587;48.816;9.420;2023-07-16T16:25:20;98717.22;;;26.85;42.15
48792;BME280;34587;48.816;9.420;2023-07-16T16:27:45;98715.53;;;26.63;43.53
48792;BME280;34587;48.816;9.420;2023-07-16T16:30:11;98713.78;;;26.00;45.66
48792;BME280;34587;48.816;9.420;2023-07-16T16:32:36;98718.75;;;26.25;45.26
48792;BME280;34587;48.816;9.420;2023-07-16T16:35:03;98719.53;;;26.16;45.19
48792;BME280;34587;48.816;9.420;2023-07-16T16:37:28;98718.34;;;26.09;46.37
48792;BME280;34587;48.816;9.420;2023-07-16T16:39:54;98727.09;;;25.88;46.17
48792;BME280;34587;48.816;9.420;2023-07-16T16:42:20;98714.31;;;25.94;46.39
48792;BME280;34587;48.816;9.420;2023-07-16T16:44:45;98720.94;;;26.20;46.28
48792;BME280;34587;48.816;9.420;2023-07-16T16:47:10;98728.06;;;26.52;44.44
48792;BME280;34587;48.816;9.420;2023-07-16T16:49:36;98732.94;;;26.47;45.11
48792;BME280;34587;48.816;9.420;2023-07-16T16:52:01;98733.31;;;26.10;46.27
48792;BME280;34587;48.816;9.420;2023-07-16T16:54:27;98746.34;;;25.58;46.27
48792;BME280;34587;48.816;9.420;2023-07-16T16:56:52;98748.88;;;25.49;47.35
48792;BME280;34587;48.816;9.420;2023-07-16T16:59:18;98755.38;;;25.33;47.45
48792;BME280;34587;48.816;9.420;2023-07-16T17:01:43;98748.63;;;25.18;47.50
48792;BME280;34587;48.816;9.420;2023-07-16T17:04:08;98744.16;;;24.96;47.71
48792;BME280;34587;48.816;9.420;2023-07-16T17:08:59;98751.06;;;25.10;47.77
48792;BME280;34587;48.816;9.420;2023-07-16T17:11:24;98757.34;;;25.20;47.84
48792;BME280;34587;48.816;9.420;2023-07-16T17:13:49;98756.59;;;25.18;47.73
48792;BME280;34587;48.816;9.420;2023-07-16T17:16:15;98750.94;;;25.23;47.73
48792;BME280;34587;48.816;9.420;2023-07-16T17:18:40;98756.59;;;25.52;46.90
48792;BME280;34587;48.816;9.420;2023-07-16T17:21:06;98755.34;;;25.67;47.23
48792;BME280;34587;48.816;9.420;2023-07-16T17:23:31;98745.19;;;25.95;46.17
48792;BME280;34587;48.816;9.420;2023-07-16T17:25:56;98742.88;;;25.24;45.81
48792;BME280;34587;48.816;9.420;2023-07-16T17:28:21;98740.94;;;25.15;46.37
48792;BME280;34587;48.816;9.420;2023-07-16T17:30:47;98743.44;;;25.28;46.92
48792;BME280;34587;48.816;9.420;2023-07-16T17:33:12;98744.25;;;24.83;47.55
48792;BME280;34587;48.816;9.420;2023-07-16T17:35:37;98754.19;;;24.57;47.27
48792;BME280;34587;48.816;9.420;2023-07-16T17:38:03;98752.25;;;24.59;47.06
48792;BME280;34587;48.816;9.420;2023-07-16T17:40:29;98762.31;;;24.90;46.81
48792;BME280;34587;48.816;9.420;2023-07-16T17:42:54;98762.59;;;24.98;46.10